Flight Track Log - Related Links

Times and Time Zones

All times are in EST time to prevent confusion due to time zone crossing. See the N143DE flight status page for this flight to view local times or setup timezone preferences in your user account.

Time Position Orientation Groundspeed Altitude Reporting Facility
EST Latitude Longitude Course Direction KTS MPH feet Rate Location/Type
Thu 07:46:09 AM 33.9667 -84.6833 239° Southwest 191 220 3,700  Level Atlanta TRACON
Thu 07:46:57 AM 33.9500 -84.7167 239° Southwest 178 205 4,800 1,444 Climbing Atlanta TRACON
Thu 07:47:57 AM 33.9167 -84.7500 220° Southwest 160 184 6,300 1,429 Climbing Atlanta TRACON
Thu 07:49:03 AM 33.8667 -84.7833 209° Southwest 168 193 7,800 1,429 Climbing Atlanta TRACON
Thu 07:50:03 AM 33.8167 -84.7833 180° South 187 215 9,300 1,100 Climbing Atlanta TRACON
Thu 07:51:03 AM 33.7667 -84.7833 180° South 197 227 10,000 400 Climbing Atlanta TRACON
Thu 07:52:03 AM 33.7167 -84.8000 195° South 234 269 10,100  Climbing Atlanta TRACON
Thu 07:52:57 AM 33.6500 -84.8000 180° South 246 283 10,000 -53 Descending Atlanta TRACON
Thu 07:53:57 AM 33.5833 -84.8167 192° South 250 288 10,000 50 Level Atlanta TRACON
Thu 07:54:57 AM 33.5167 -84.7833 157° South 288 331 10,100  Climbing Atlanta TRACON
Thu 07:56:18 AM 33.4397 -84.7083 141° Southeast 292 336 10,000  Descending Atlanta Center
Thu 07:57:18 AM 33.3817 -84.6383 135° Southeast 292 336 10,100 550 Climbing Atlanta Center
Thu 07:58:18 AM 33.3297 -84.5658 178° South 287 330 11,100 1,050 Climbing Atlanta Center
Thu 07:59:18 AM 33.2800 -84.4986 131° Southeast 282 325 12,200 1,050 Climbing Atlanta Center
Thu 08:00:18 AM 33.2236 -84.4486 143° Southeast 260 299 13,200 850 Climbing Atlanta Center
Thu 08:01:18 AM 33.1572 -84.4036 150° Southeast 255 293 13,900 950 Climbing Atlanta Center
Thu 08:02:18 AM 33.0925 -84.3736 159° South 255 293 15,100 1,200 Climbing Atlanta Center
Thu 08:03:18 AM 33.0342 -84.3461 158° South 242 278 16,300 1,150 Climbing Atlanta Center
Thu 08:04:18 AM 32.9758 -84.3211 160° South 231 266 17,400 950 Climbing Atlanta Center
Thu 08:05:18 AM 32.9194 -84.3011 163° South 221 254 18,200 3,800 Climbing Atlanta Center
Thu 08:06:18 AM 32.8611 -84.2761 160° South 221 254 25,000 850 Climbing Atlanta Center
Thu 08:07:18 AM 32.8047 -84.2464 156° South 226 260 19,900 -2,150 Descending Atlanta Center
Thu 08:08:18 AM 32.7422 -84.2192 160° South 233 268 20,700 800 Climbing Atlanta Center
Thu 08:09:18 AM 32.6878 -84.1869 154° Southeast 233 268 21,500 800 Climbing Atlanta Center
Thu 08:10:18 AM 32.6294 -84.1572 157° South 227 261 22,300 800 Climbing Atlanta Center
Thu 08:11:18 AM 32.5731 -84.1325 160° South 227 261 23,100 683 Climbing Atlanta Center
Thu 08:13:05 AM 32.4803 -84.0869 157° South 227 261 24,200 647 Climbing Jacksonville Center
Thu 08:14:05 AM 32.4242 -84.0592 157° South 222 255 24,900 400 Climbing Jacksonville Center
Thu 08:15:05 AM 32.3639 -84.0314 159° South 227 261 25,000 50 Climbing Jacksonville Center
Thu 08:16:05 AM 32.2994 -84.0036 160° South 239 275 25,000  Level Jacksonville Center
Thu 08:17:05 AM 32.2331 -83.9708 157° South 244 281 25,000  Level Jacksonville Center
Thu 08:18:05 AM 32.1644 -83.9381 158° South 257 296 25,000  Level Jacksonville Center
Thu 08:19:05 AM 32.1000 -83.9031 155° Southeast 262 302 25,000  Level Jacksonville Center
Thu 08:20:05 AM 32.0311 -83.8703 158° South 262 302 25,000  Level Jacksonville Center
Thu 08:21:05 AM 31.9625 -83.8378 158° South 267 307 25,000  Level Jacksonville Center
Thu 08:22:05 AM 31.8961 -83.8053 157° South 267 307 25,000  Level Jacksonville Center
Thu 08:23:05 AM 31.8253 -83.7728 159° South 267 307 25,000  Level Jacksonville Center
Thu 08:24:05 AM 31.7567 -83.7381 157° South 267 307 25,000  Level Jacksonville Center
Thu 08:25:05 AM 31.6900 -83.7033 156° South 272 313 25,000  Level Jacksonville Center
Thu 08:26:05 AM 31.6108 -83.6708 161° South 272 313 25,000  Level Jacksonville Center
Thu 08:27:05 AM 31.5442 -83.6386 158° South 272 313 25,000  Level Jacksonville Center
Thu 08:28:05 AM 31.4775 -83.6089 159° South 272 313 25,000  Level Jacksonville Center
Thu 08:29:05 AM 31.4089 -83.5742 157° South 272 313 25,000  Level Jacksonville Center
Thu 08:30:05 AM 31.3403 -83.5419 158° South 272 313 25,000  Level Jacksonville Center
Thu 08:31:05 AM 31.2736 -83.5125 159° South 272 313 25,000  Level Jacksonville Center
Thu 08:32:05 AM 31.2028 -83.4781 157° South 267 307 25,000  Level Jacksonville Center
Thu 08:33:05 AM 31.1381 -83.4483 159° South 267 307 25,000  Level Jacksonville Center
Thu 08:34:05 AM 31.0692 -83.4164 158° South 267 307 25,000  Level Jacksonville Center
Thu 08:35:05 AM 30.9983 -83.3847 159° South 267 307 25,000  Level Jacksonville Center
Thu 08:36:05 AM 30.9297 -83.3528 158° South 267 307 25,000  Level Jacksonville Center
Thu 08:37:05 AM 30.8608 -83.3186 157° South 267 307 25,000  Level Jacksonville Center
Thu 08:38:05 AM 30.8003 -83.2892 157° South 267 307 25,000  Level Jacksonville Center
Thu 08:39:05 AM 30.7317 -83.2575 158° South 272 313 25,000  Level Jacksonville Center
Thu 08:40:05 AM 30.6650 -83.2211 155° Southeast 272 313 25,000  Level Jacksonville Center
Thu 08:41:05 AM 30.5961 -83.1869 157° South 272 313 25,000  Level Jacksonville Center
Thu 08:42:05 AM 30.5272 -83.1483 154° Southeast 272 313 25,000  Level Jacksonville Center
Thu 08:43:05 AM 30.4583 -83.1167 158° South 272 313 25,000  Level Jacksonville Center
Thu 08:44:05 AM 30.3894 -83.0828 157° South 272 313 25,000  Level Jacksonville Center
Thu 08:45:05 AM 30.3228 -83.0489 156° South 272 313 25,000  Level Jacksonville Center
Thu 08:46:05 AM 30.2539 -83.0175 159° South 272 313 25,000  Level Jacksonville Center
Thu 08:47:05 AM 30.1872 -82.9839 156° South 272 313 25,000  Level Jacksonville Center
Thu 08:48:05 AM 30.1183 -82.9478 156° South 272 313 25,000  Level Jacksonville Center
Thu 08:49:05 AM 30.0514 -82.9142 157° South 272 313 25,000  Level Jacksonville Center
Thu 08:50:05 AM 29.9825 -82.8831 159° South 272 313 25,000  Level Jacksonville Center
Thu 08:51:05 AM 29.9178 -82.8494 156° South 272 313 25,000  Level Jacksonville Center
Thu 08:52:05 AM 29.8531 -82.8183 157° South 267 307 25,000  Level Jacksonville Center
Thu 08:53:05 AM 29.7864 -82.7872 158° South 262 302 25,000  Level Jacksonville Center
Thu 08:54:05 AM 29.7236 -82.7753 171° South 243 280 25,000  Level Jacksonville Center
Thu 08:55:05 AM 29.6672 -82.7803 184° South 221 254 25,000  Level Jacksonville Center
Thu 08:56:05 AM 29.6047 -82.7731 174° South 221 254 25,000  Level Jacksonville Center
Thu 08:57:05 AM 29.5419 -82.7708 178° South 216 249 25,000  Level Jacksonville Center
Thu 08:58:05 AM 29.4753 -82.7661 176° South 221 254 25,000  Level Jacksonville Center
Thu 08:59:05 AM 29.4147 -82.7639 178° South 221 254 25,000  Level Jacksonville Center
Thu 09:00:05 AM 29.3519 -82.7614 178° South 226 260 25,000  Level Jacksonville Center
Thu 09:01:05 AM 29.2914 -82.7569 176° South 226 260 25,000  Level Jacksonville Center
Thu 09:02:05 AM 29.2267 -82.7544 178° South 226 260 25,000  Level Jacksonville Center
Thu 09:03:05 AM 29.1642 -82.7500 176° South 226 260 25,000  Level Jacksonville Center
Thu 09:04:05 AM 29.1036 -82.7475 178° South 226 260 25,000  Level Jacksonville Center
Thu 09:05:05 AM 29.0389 -82.7431 177° South 231 266 25,000  Level Jacksonville Center
Thu 09:06:05 AM 28.9764 -82.7408 178° South 231 266 25,000  Level Jacksonville Center
Thu 09:07:05 AM 28.9158 -82.7383 178° South 231 266 25,000  Level Jacksonville Center
Thu 09:08:05 AM 28.8511 -82.7361 178° South 231 266 25,000  Level Jacksonville Center
Thu 09:09:05 AM 28.7883 -82.7314 176° South 231 266 25,000  Level Jacksonville Center
Thu 09:10:05 AM 28.7217 -82.7269 177° South 236 272 25,000  Level Jacksonville Center
Thu 09:11:05 AM 28.6653 -82.7269 180° South 236 272 25,000  Level Jacksonville Center
Thu 09:12:48 AM 28.5439 -82.7208 177° South 234 269 25,000  Level Miami Center
Thu 09:13:48 AM 28.4814 -82.7175 177° South 234 269 25,000  Level Miami Center
Thu 09:14:48 AM 28.4150 -82.7117 176° South 234 269 25,000  Level Miami Center
Thu 09:15:48 AM 28.3525 -82.7108 179° South 234 269 25,000  Level Miami Center
Thu 09:16:48 AM 28.2858 -82.7050 176° South 234 269 25,000  Level Miami Center
Thu 09:17:48 AM 28.2214 -82.7039 179° South 234 269 25,000  Level Miami Center
Thu 09:18:48 AM 28.1547 -82.7006 177° South 234 269 25,000  Level Miami Center
Thu 09:19:48 AM 28.0942 -82.6975 177° South 234 269 25,000  Level Miami Center
Thu 09:20:48 AM 28.0258 -82.6914 175° South 239 275 25,000  Level Miami Center
Thu 09:21:48 AM 27.9592 -82.6881 177° South 239 275 25,000  Level Miami Center
Thu 09:22:48 AM 27.8906 -82.6822 176° South 239 275 25,000  Level Miami Center
Thu 09:23:48 AM 27.8297 -82.6392 148° Southeast 245 282 25,000 -300 Level Miami Center
Thu 09:24:48 AM 27.7631 -82.5867 145° Southeast 274 315 24,400 -600 Descending Miami Center
Thu 09:25:48 AM 27.6917 -82.5408 150° Southeast 293 337 23,800 -500 Descending Miami Center
Thu 09:26:48 AM 27.6144 -82.4878 149° Southeast 293 337 23,400 -400 Descending Miami Center
Thu 09:27:48 AM 27.5431 -82.4444 152° Southeast 293 337 23,000 -200 Descending Miami Center
Thu 09:28:48 AM 27.4781 -82.3992 148° Southeast 288 331 23,000  Level Miami Center
Thu 09:29:48 AM 27.4150 -82.3589 150° Southeast 283 326 23,000  Level Miami Center
Thu 09:30:48 AM 27.3519 -82.3136 147° Southeast 274 315 23,000  Level Miami Center
Thu 09:31:48 AM 27.2808 -82.2683 150° Southeast 274 315 23,000  Level Miami Center
Thu 09:32:48 AM 27.2197 -82.2258 148° Southeast 269 310 23,000  Level Miami Center
Thu 09:33:48 AM 27.1586 -82.1856 150° Southeast 269 310 23,000  Level Miami Center
Thu 09:34:48 AM 27.0953 -82.1431 149° Southeast 264 304 23,000  Level Miami Center
Thu 09:35:48 AM 27.0239 -82.0978 151° Southeast 264 304 23,000  Level Miami Center
Thu 09:36:48 AM 26.9669 -82.0628 151° Southeast 259 298 23,000  Level Miami Center
Thu 09:37:48 AM 26.9017 -82.0203 150° Southeast 259 298 23,000  Level Miami Center
Thu 09:38:48 AM 26.8364 -81.9778 150° Southeast 264 304 23,000  Level Miami Center
Thu 09:39:48 AM 26.7708 -81.9353 150° Southeast 264 304 23,000 -350 Level Miami Center
Thu 09:40:48 AM 26.7056 -81.8931 150° Southeast 264 304 22,300 -750 Descending Miami Center
Thu 09:41:48 AM 26.6342 -81.8481 151° Southeast 276 318 21,500 -800 Descending Miami Center
Thu 09:42:48 AM 26.5628 -81.7986 148° Southeast 287 330 20,700 -800 Descending Miami Center
Thu 09:43:48 AM 26.5003 -81.7358 138° Southeast 297 342 19,900 -800 Descending Miami Center
Thu 09:44:48 AM 26.4592 -81.6483 118° Southeast 304 350 19,100 -1,000 Descending Miami Center
Thu 09:45:48 AM 26.4203 -81.5656 118° Southeast 304 350 17,900 -1,650 Descending Miami Center
Thu 09:46:48 AM 26.3747 -81.4825 121° Southeast 304 350 15,800 -1,950 Descending Miami Center
Thu 09:47:48 AM 26.3356 -81.4044 119° Southeast 304 350 14,000 -1,850 Descending Miami Center
Thu 09:48:48 AM 26.2942 -81.3242 120° Southeast 297 342 12,100 -1,900 Descending Miami Center
Thu 09:49:48 AM 26.2525 -81.2486 122° Southeast 297 342 10,200 -1,966 Descending Miami Center
Thu 09:50:47 AM 26.2131 -81.1683 119° Southeast 278 320 8,200 -1,765 Descending Miami Center
Thu 09:51:47 AM 26.1775 -81.1000 120° Southeast 264 304 6,700 -1,524 Descending Miami Center
Thu 09:51:50 AM 26.1736 -81.0975 150° Southeast 256 295 6,600 -1,071 Descending Miami Center
Thu 09:52:15 AM 26.1556 -81.0714 128° Southeast 247 284 6,200 -526 Descending Miami Center
Thu 09:52:47 AM 26.1439 -81.0364 110° East 254 292 6,100 -197 Descending Miami Center
Thu 09:53:16 AM 26.1258 -81.0103 128° Southeast 205 236 6,000 -98 Descending Miami Center
Thu 09:53:48 AM 26.1161 -80.9844 113° Southeast 235 270 6,000  Level Miami Center
Thu 09:54:17 AM 26.1025 -80.9517 115° Southeast 204 235 6,000  Level Miami Center
Thu 09:54:47 AM 26.0989 -80.9283 100° East 210 242 6,000  Level Miami Center
Thu 09:55:18 AM 26.0872 -80.8956 112° Southeast 196 226 6,000 -197 Level Miami Center
Thu 09:55:48 AM 26.0817 -80.8700 104° East 200 230 5,800 -590 Descending Miami Center
Thu 09:56:19 AM 26.0703 -80.8350 110° East 201 231 5,400 -712 Descending Miami Center
Thu 09:56:47 AM 26.0606 -80.8092 113° Southeast 195 224 5,100 -806 Descending Miami Center
Thu 09:57:26 AM 26.0428 -80.7647 114° Southeast 222 255 4,500 -787 Descending Miami Center
Thu 09:57:48 AM 26.0392 -80.7461 102° East 206 237 4,300 -677 Descending Miami Center
Thu 09:58:28 AM 26.0217 -80.6992 113° Southeast 219 252 3,800 -700 Descending Miami Center
Thu 09:58:48 AM 26.0178 -80.6853 107° East 206 237 3,600 -655 Descending Miami Center
Thu 09:59:23 AM 25.9978 -80.6453 119° Southeast 210 242 3,200 -600 Descending Miami Center
Thu 09:59:48 AM 25.9964 -80.6244 94° East 211 243 3,000 -197 Descending Miami Center
Thu 10:00:24 AM 25.9847 -80.5847 108° East 198 228 3,000  Level Miami Center
Thu 10:00:48 AM 25.9833 -80.5664 95° East 211 243 3,000 -290 Level Miami Center
Thu 10:01:26 AM 25.9717 -80.5289 109° East 178 205 2,700 -606 Descending Miami Center
Thu 10:02:27 AM 25.9750 -80.4783 86° East 157 181 2,000 -344 Descending Miami Center
Thu 10:03:28 AM 25.9803 -80.4322 83° East 150 173 2,000  Level Miami Center
Thu 10:04:29 AM 25.9814 -80.3836 89° East 156 180 2,000  Level Miami Center
Thu 10:05:30 AM 25.9592 -80.3506 127° Southeast 128 147 2,000  Level Miami Center
Thu 10:06:31 AM 25.9433 -80.3178 118° Southeast 120 138 2,000 49 Level Miami Center
Thu 10:07:33 AM 25.9422 -80.2808 92° East 117 135 2,100 -293 Climbing Miami Center
Thu 10:08:34 AM 25.9408 -80.2417 92° East 137 158 1,400 -829 Descending Miami Center
Thu 10:09:36 AM 25.9117 -80.2478 191° South 119 137 400 -968 Descending Miami Center
Thu 10:11:00 AM 25.9000 -80.2667 103° East  Level FlightAware Approximate
Thu 10:18:00 AM 25.9074 -80.2782 103° East  Level Estimated

Login

Don't have an account? Register now (free) for customized features, flight alerts, and more!